Cape Agnes — 3FCK8 — position and weather

sailwx.info

Track history (hours):
 
Tides and Currents Weather Stations Pressure Air Temp Water Temp Dewpoint Dewpoint Depression Visibility Wind Speed Wind Dir Waves Ship Positions

Cape Agnes

Last reported at 2018-Jul-15 19:48 UTC. Time now 2018-Jul-17 04:12 UTC.
Position N 30°59' E 122°32'.

Length 292 m; draft 7.9 m.

Type: Cargo ship. MMSI: 356472000.

Date/timePositionNaut miles runAvg speedWind from/ knotsBaromVisibWave heightAir tempDewpointWater temp
2018-Jul-15 19:48N 30°59' E 122°32'414.6
2018-Jul-15 19:30N 30°60' E 122°27'611.8
2018-Jul-15 19:00N 31°01' E 122°20'610.8
2018-Jul-15 18:30N 31°02' E 122°14'510.3
2018-Jul-15 18:00N 31°03' E 122°08'510.8
2018-Jul-15 17:31N 31°05' E 122°02'4 7.4
2018-Jul-15 17:00N 31°06' E 121°58'4 8.1
2018-Jul-15 16:31N 31°08' E 121°54'5 8.9
2018-Jul-15 16:00N 31°11' E 121°50'4 9.0
2018-Jul-15 15:30N 31°14' E 121°47'710.7
2018-Jul-15 14:48N 31°20' E 121°41'6911.8
2018-Jul-15 08:58N 32°00' E 120°35'612.9
2018-Jul-15 08:30N 32°02' E 120°28'612.5
2018-Jul-15 08:00N 31°60' E 120°22'1 2.7
2018-Jul-15 07:29N 31°58' E 120°22'2 0.3
2018-Jul-15 01:54N 31°58' E 120°24'0 0.0
2018-Jul-15 01:18N 31°58' E 120°24'0 0.0
2018-Jul-14 22:12N 31°58' E 120°24'0 0.0
2018-Jul-14 21:45N 31°58' E 120°24'0 0.0
2018-Jul-14 21:27N 31°58' E 120°24'0 0.0
2018-Jul-14 12:51N 31°58' E 120°24'0 0.0
2018-Jul-14 12:21N 31°58' E 120°24'0 0.0
2018-Jul-14 11:51N 31°58' E 120°24'0 0.0
2018-Jul-14 11:27N 31°58' E 120°24'0 0.0
2018-Jul-14 10:48N 31°58' E 120°24'0 0.0
2018-Jul-14 10:27N 31°58' E 120°24'0 0.0
2018-Jul-14 09:57N 31°58' E 120°24'0 0.0
2018-Jul-14 09:24N 31°58' E 120°24'0 0.0
2018-Jul-14 08:54N 31°58' E 120°24'0 0.0
2018-Jul-14 08:30N 31°58' E 120°24'0 0.0
2018-Jul-14 07:39N 31°58' E 120°24'0 0.0
2018-Jul-14 07:24N 31°58' E 120°24'0 0.0
2018-Jul-14 06:12N 31°58' E 120°24'0 0.0
2018-Jul-14 05:54N 31°58' E 120°24'0 0.0
2018-Jul-14 04:00N 31°58' E 120°24'0 0.0
2018-Jul-13 22:12N 31°58' E 120°24'0 0.1
2018-Jul-13 21:51N 31°58' E 120°24'0 0.0
2018-Jul-13 21:12N 31°58' E 120°24'0 0.0
2018-Jul-13 21:00N 31°58' E 120°24'0 0.0
2018-Jul-13 20:09N 31°58' E 120°24'0 0.0
2018-Jul-13 20:00N 31°58' E 120°24'0 0.0
2018-Jul-13 13:48N 31°58' E 120°24'0 0.0
2018-Jul-13 12:39N 31°58' E 120°24'0 0.0
2018-Jul-13 11:09N 31°58' E 120°24'0 0.6
2018-Jul-13 11:00N 31°58' E 120°24'2 3.7
2018-Jul-13 10:30N 31°58' E 120°26'3 6.8
2018-Jul-13 10:00N 32°02' E 120°27'510.0
2018-Jul-13 09:30N 32°01' E 120°33'7510.5
2018-Jul-13 02:23N 31°19' E 121°45'510.6
2018-Jul-13 01:57N 31°17' E 121°50'410.1
2018-Jul-13 01:30N 31°16' E 121°55'611.5
2018-Jul-13 00:59N 31°15' E 122°02'510.3
2018-Jul-13 00:29N 31°13' E 122°07'5 9.5
2018-Jul-12 23:57N 31°10' E 122°12'4 9.4
2018-Jul-12 23:30N 31°07' E 122°16'510.5
2018-Jul-12 23:00N 31°06' E 122°22'4 8.9
2018-Jul-12 22:30N 31°07' E 122°27'6 6.5
2018-Jul-12 21:39N 31°07' E 122°34'1 5.8
2018-Jul-12 21:30N 31°07' E 122°35'3 5.6
2018-Jul-12 21:00N 31°07' E 122°38'  
Track history (hours):
 
Tides and Currents Weather Stations Pressure Air Temp Water Temp Dewpoint Dewpoint Depression Visibility Wind Speed Wind Dir Waves Ship Positions

Cape Agnes

Last reported at 2018-Jul-15 19:48 UTC. Time now 2018-Jul-17 04:12 UTC.
Position N 30°59' E 122°32'.

Length 292 m; draft 7.9 m.

Type: Cargo ship. MMSI: 356472000.

Date/timePositionNaut miles runAvg speedWind from/ knotsBaromVisibWave heightAir tempDewpointWater temp
2018-Jul-15 19:48N 30°59' E 122°32'414.6
2018-Jul-15 19:30N 30°60' E 122°27'611.8
2018-Jul-15 19:00N 31°01' E 122°20'610.8
2018-Jul-15 18:30N 31°02' E 122°14'510.3
2018-Jul-15 18:00N 31°03' E 122°08'510.8
2018-Jul-15 17:31N 31°05' E 122°02'4 7.4
2018-Jul-15 17:00N 31°06' E 121°58'4 8.1
2018-Jul-15 16:31N 31°08' E 121°54'5 8.9
2018-Jul-15 16:00N 31°11' E 121°50'4 9.0
2018-Jul-15 15:30N 31°14' E 121°47'710.7
2018-Jul-15 14:48N 31°20' E 121°41'6911.8
2018-Jul-15 08:58N 32°00' E 120°35'612.9
2018-Jul-15 08:30N 32°02' E 120°28'612.5
2018-Jul-15 08:00N 31°60' E 120°22'1 2.7
2018-Jul-15 07:29N 31°58' E 120°22'2 0.3
2018-Jul-15 01:54N 31°58' E 120°24'0 0.0
2018-Jul-15 01:18N 31°58' E 120°24'0 0.0
2018-Jul-14 22:12N 31°58' E 120°24'0 0.0
2018-Jul-14 21:45N 31°58' E 120°24'0 0.0
2018-Jul-14 21:27N 31°58' E 120°24'0 0.0
2018-Jul-14 12:51N 31°58' E 120°24'0 0.0
2018-Jul-14 12:21N 31°58' E 120°24'0 0.0
2018-Jul-14 11:51N 31°58' E 120°24'0 0.0
2018-Jul-14 11:27N 31°58' E 120°24'0 0.0
2018-Jul-14 10:48N 31°58' E 120°24'0 0.0
2018-Jul-14 10:27N 31°58' E 120°24'0 0.0
2018-Jul-14 09:57N 31°58' E 120°24'0 0.0
2018-Jul-14 09:24N 31°58' E 120°24'0 0.0
2018-Jul-14 08:54N 31°58' E 120°24'0 0.0
2018-Jul-14 08:30N 31°58' E 120°24'0 0.0
2018-Jul-14 07:39N 31°58' E 120°24'0 0.0
2018-Jul-14 07:24N 31°58' E 120°24'0 0.0
2018-Jul-14 06:12N 31°58' E 120°24'0 0.0
2018-Jul-14 05:54N 31°58' E 120°24'0 0.0
2018-Jul-14 04:00N 31°58' E 120°24'0 0.0
2018-Jul-13 22:12N 31°58' E 120°24'0 0.1
2018-Jul-13 21:51N 31°58' E 120°24'0 0.0
2018-Jul-13 21:12N 31°58' E 120°24'0 0.0
2018-Jul-13 21:00N 31°58' E 120°24'0 0.0
2018-Jul-13 20:09N 31°58' E 120°24'0 0.0
2018-Jul-13 20:00N 31°58' E 120°24'0 0.0
2018-Jul-13 13:48N 31°58' E 120°24'0 0.0
2018-Jul-13 12:39N 31°58' E 120°24'0 0.0
2018-Jul-13 11:09N 31°58' E 120°24'0 0.6
2018-Jul-13 11:00N 31°58' E 120°24'2 3.7
2018-Jul-13 10:30N 31°58' E 120°26'3 6.8
2018-Jul-13 10:00N 32°02' E 120°27'510.0
2018-Jul-13 09:30N 32°01' E 120°33'7510.5
2018-Jul-13 02:23N 31°19' E 121°45'510.6
2018-Jul-13 01:57N 31°17' E 121°50'410.1
2018-Jul-13 01:30N 31°16' E 121°55'611.5
2018-Jul-13 00:59N 31°15' E 122°02'510.3
2018-Jul-13 00:29N 31°13' E 122°07'5 9.5
2018-Jul-12 23:57N 31°10' E 122°12'4 9.4
2018-Jul-12 23:30N 31°07' E 122°16'510.5
2018-Jul-12 23:00N 31°06' E 122°22'4 8.9
2018-Jul-12 22:30N 31°07' E 122°27'6 6.5
2018-Jul-12 21:39N 31°07' E 122°34'1 5.8
2018-Jul-12 21:30N 31°07' E 122°35'3 5.6
2018-Jul-12 21:00N 31°07' E 122°38'  

Dump ship's entire track history